Flinterbothnia — PBLG — position and weather

sailwx.info

Track history (hours):
 
Tides and Currents Weather Stations Pressure Air Temp Water Temp Dewpoint Dewpoint Depression Visibility Wind Speed Wind Dir Waves Ship Positions

Flinterbothnia

Last reported at 2016-Apr-29 20:09 UTC. Time now 2016-May-04 15:24 UTC.
Position N 53°38' W 005°59'.

Length 82 m; draft 4.1 m.

Type: Cargo ship. MMSI: 244741000.

Date/timePositionNaut miles runAvg speedWind from/ knotsBaromVisibWave heightAir tempDewpointWater temp
2016-Apr-29 20:09N 53°38' W 005°59'711.4
2016-Apr-29 19:30N 53°45' W 005°60'1111.2
2016-Apr-29 18:33N 53°56' W 006°02'10 9.8
2016-Apr-29 17:33N 54°04' W 006°11'0 0.0
2016-Apr-28 17:32N 54°04' W 006°11'9 8.5
2016-Apr-28 16:30N 54°01' W 005°57'1010.1
2016-Apr-28 15:34N 54°07' W 005°44'10 9.8
2016-Apr-28 14:33N 54°14' W 005°32'1010.2
2016-Apr-28 13:33N 54°22' W 005°23'1010.5
2016-Apr-28 12:33N 54°33' W 005°24'1211.8
2016-Apr-28 11:34N 54°44' W 005°31'1211.6
2016-Apr-28 10:33N 54°53' W 005°43'2110.3
2016-Apr-28 08:33N 55°12' W 005°58'8 8.3
2016-Apr-28 07:34N 55°19' W 006°06'8 7.7
2016-Apr-28 06:34N 55°24' W 006°17'8 8.1
2016-Apr-28 05:33N 55°31' W 006°24'8 8.1
2016-Apr-28 04:33N 55°38' W 006°31'6 6.3
2016-Apr-28 03:33N 55°44' W 006°34'192 9.1
2016-Apr-27 06:21N 58°41' W 004°15'911.5
2016-Apr-27 05:33N 58°41' W 003°58'1212.0
2016-Apr-27 04:33N 58°43' W 003°35'1313.1
2016-Apr-27 03:33N 58°44' W 003°10'1313.2
2016-Apr-27 02:33N 58°42' W 002°45'27811.0
2016-Apr-26 01:20N 57°59' E 005°59'1012.2
2016-Apr-26 00:33N 57°57' E 006°16'1212.5
2016-Apr-25 23:33N 57°56' E 006°40'1313.4
2016-Apr-25 22:33N 57°54' E 007°05'11811.8
2016-Apr-25 12:33N 57°48' E 010°46'1111.3
2016-Apr-25 11:33N 57°40' E 011°02'1211.7
2016-Apr-25 10:33N 57°32' E 011°18'1211.5
2016-Apr-25 09:33N 57°23' E 011°30'1211.7
2016-Apr-25 08:33N 57°12' E 011°38'1211.7
2016-Apr-25 07:33N 57°01' E 011°46'1111.2
2016-Apr-25 06:33N 56°51' E 011°55'1111.1
2016-Apr-25 05:33N 56°41' E 012°04'2511.2
2016-Apr-25 03:20N 56°18' E 012°22'911.4
2016-Apr-25 02:33N 56°10' E 012°28'1211.8
2016-Apr-25 01:33N 56°01' E 012°41'1111.3
2016-Apr-25 00:33N 55°49' E 012°43'1211.7
2016-Apr-24 23:33N 55°38' E 012°42'1111.3
2016-Apr-24 22:34N 55°26' E 012°42'10 9.5
2016-Apr-24 21:33N 55°17' E 012°46'1111.2
2016-Apr-24 20:33N 55°16' E 013°06'1311.6
2016-Apr-24 19:28N 55°15' E 013°28'1111.8
2016-Apr-24 18:33N 55°15' E 013°47'1212.0
2016-Apr-24 17:33N 55°14' E 014°08'1111.2
2016-Apr-24 16:33N 55°19' E 014°25'1211.9
2016-Apr-24 15:33N 55°27' E 014°40'1211.5
2016-Apr-24 14:33N 55°33' E 014°58'  
2016-Apr-21 05:21N 59°39' E 021°00'911.4
2016-Apr-21 04:33N 59°36' E 021°18'1111.3
2016-Apr-21 03:33N 59°34' E 021°39'1111.0
2016-Apr-21 02:33N 59°34' E 022°01'3411.0
2016-Apr-20 23:29N 59°40' E 023°07'1011.2
2016-Apr-20 22:33N 59°42' E 023°27'1111.3
2016-Apr-20 21:33N 59°44' E 023°49'7211.1
2016-Apr-20 15:05N 60°05' E 026°07'611.5
2016-Apr-20 14:33N 60°09' E 026°17'1111.3
2016-Apr-20 13:33N 60°17' E 026°32'1111.4
2016-Apr-20 12:33N 60°24' E 026°50'1010.2
2016-Apr-20 11:33N 60°29' E 027°08'  
Track history (hours):
 
Tides and Currents Weather Stations Pressure Air Temp Water Temp Dewpoint Dewpoint Depression Visibility Wind Speed Wind Dir Waves Ship Positions

Flinterbothnia

Last reported at 2016-Apr-29 20:09 UTC. Time now 2016-May-04 15:24 UTC.
Position N 53°38' W 005°59'.

Length 82 m; draft 4.1 m.

Type: Cargo ship. MMSI: 244741000.

Date/timePositionNaut miles runAvg speedWind from/ knotsBaromVisibWave heightAir tempDewpointWater temp
2016-Apr-29 20:09N 53°38' W 005°59'711.4
2016-Apr-29 19:30N 53°45' W 005°60'1111.2
2016-Apr-29 18:33N 53°56' W 006°02'10 9.8
2016-Apr-29 17:33N 54°04' W 006°11'0 0.0
2016-Apr-28 17:32N 54°04' W 006°11'9 8.5
2016-Apr-28 16:30N 54°01' W 005°57'1010.1
2016-Apr-28 15:34N 54°07' W 005°44'10 9.8
2016-Apr-28 14:33N 54°14' W 005°32'1010.2
2016-Apr-28 13:33N 54°22' W 005°23'1010.5
2016-Apr-28 12:33N 54°33' W 005°24'1211.8
2016-Apr-28 11:34N 54°44' W 005°31'1211.6
2016-Apr-28 10:33N 54°53' W 005°43'2110.3
2016-Apr-28 08:33N 55°12' W 005°58'8 8.3
2016-Apr-28 07:34N 55°19' W 006°06'8 7.7
2016-Apr-28 06:34N 55°24' W 006°17'8 8.1
2016-Apr-28 05:33N 55°31' W 006°24'8 8.1
2016-Apr-28 04:33N 55°38' W 006°31'6 6.3
2016-Apr-28 03:33N 55°44' W 006°34'192 9.1
2016-Apr-27 06:21N 58°41' W 004°15'911.5
2016-Apr-27 05:33N 58°41' W 003°58'1212.0
2016-Apr-27 04:33N 58°43' W 003°35'1313.1
2016-Apr-27 03:33N 58°44' W 003°10'1313.2
2016-Apr-27 02:33N 58°42' W 002°45'27811.0
2016-Apr-26 01:20N 57°59' E 005°59'1012.2
2016-Apr-26 00:33N 57°57' E 006°16'1212.5
2016-Apr-25 23:33N 57°56' E 006°40'1313.4
2016-Apr-25 22:33N 57°54' E 007°05'11811.8
2016-Apr-25 12:33N 57°48' E 010°46'1111.3
2016-Apr-25 11:33N 57°40' E 011°02'1211.7
2016-Apr-25 10:33N 57°32' E 011°18'1211.5
2016-Apr-25 09:33N 57°23' E 011°30'1211.7
2016-Apr-25 08:33N 57°12' E 011°38'1211.7
2016-Apr-25 07:33N 57°01' E 011°46'1111.2
2016-Apr-25 06:33N 56°51' E 011°55'1111.1
2016-Apr-25 05:33N 56°41' E 012°04'2511.2
2016-Apr-25 03:20N 56°18' E 012°22'911.4
2016-Apr-25 02:33N 56°10' E 012°28'1211.8
2016-Apr-25 01:33N 56°01' E 012°41'1111.3
2016-Apr-25 00:33N 55°49' E 012°43'1211.7
2016-Apr-24 23:33N 55°38' E 012°42'1111.3
2016-Apr-24 22:34N 55°26' E 012°42'10 9.5
2016-Apr-24 21:33N 55°17' E 012°46'1111.2
2016-Apr-24 20:33N 55°16' E 013°06'1311.6
2016-Apr-24 19:28N 55°15' E 013°28'1111.8
2016-Apr-24 18:33N 55°15' E 013°47'1212.0
2016-Apr-24 17:33N 55°14' E 014°08'1111.2
2016-Apr-24 16:33N 55°19' E 014°25'1211.9
2016-Apr-24 15:33N 55°27' E 014°40'1211.5
2016-Apr-24 14:33N 55°33' E 014°58'  
2016-Apr-21 05:21N 59°39' E 021°00'911.4
2016-Apr-21 04:33N 59°36' E 021°18'1111.3
2016-Apr-21 03:33N 59°34' E 021°39'1111.0
2016-Apr-21 02:33N 59°34' E 022°01'3411.0
2016-Apr-20 23:29N 59°40' E 023°07'1011.2
2016-Apr-20 22:33N 59°42' E 023°27'1111.3
2016-Apr-20 21:33N 59°44' E 023°49'7211.1
2016-Apr-20 15:05N 60°05' E 026°07'611.5
2016-Apr-20 14:33N 60°09' E 026°17'1111.3
2016-Apr-20 13:33N 60°17' E 026°32'1111.4
2016-Apr-20 12:33N 60°24' E 026°50'1010.2
2016-Apr-20 11:33N 60°29' E 027°08'  

Dump ship's entire track history